sensor_id;sensor_type;location;lat;lon;timestamp;P1;durP1;ratioP1;P2;durP2;ratioP2
81137;SDS011;70623;50.886;3.892;2024-01-06T06:00:08;23.27;;;10.40;;
81137;SDS011;70623;50.886;3.892;2024-01-06T06:02:36;16.48;;;8.70;;
81137;SDS011;70623;50.886;3.892;2024-01-06T06:05:02;13.00;;;6.93;;
81137;SDS011;70623;50.886;3.892;2024-01-06T06:07:27;19.80;;;8.82;;
81137;SDS011;70623;50.886;3.892;2024-01-06T06:09:53;17.00;;;8.05;;
81137;SDS011;70623;50.886;3.892;2024-01-06T06:12:19;23.40;;;9.80;;
81137;SDS011;70623;50.886;3.892;2024-01-06T06:14:45;14.07;;;7.40;;
81137;SDS011;70623;50.886;3.892;2024-01-06T06:17:10;17.35;;;6.75;;
81137;SDS011;70623;50.886;3.892;2024-01-06T06:19:39;9.13;;;4.10;;
81137;SDS011;70623;50.886;3.892;2024-01-06T06:22:06;23.30;;;9.80;;
81137;SDS011;70623;50.886;3.892;2024-01-06T06:24:31;24.38;;;10.32;;
81137;SDS011;70623;50.886;3.892;2024-01-06T06:26:57;22.80;;;11.57;;
81137;SDS011;70623;50.886;3.892;2024-01-06T06:29:23;23.85;;;10.98;;
81137;SDS011;70623;50.886;3.892;2024-01-06T06:31:49;29.40;;;14.10;;
81137;SDS011;70623;50.886;3.892;2024-01-06T06:34:14;27.30;;;12.32;;
81137;SDS011;70623;50.886;3.892;2024-01-06T06:36:40;25.50;;;10.95;;
81137;SDS011;70623;50.886;3.892;2024-01-06T06:39:06;31.80;;;13.38;;
81137;SDS011;70623;50.886;3.892;2024-01-06T06:41:32;25.48;;;12.20;;
81137;SDS011;70623;50.886;3.892;2024-01-06T06:43:58;34.80;;;13.57;;
81137;SDS011;70623;50.886;3.892;2024-01-06T06:46:25;23.63;;;11.32;;
81137;SDS011;70623;50.886;3.892;2024-01-06T06:48:50;25.80;;;11.43;;
81137;SDS011;70623;50.886;3.892;2024-01-06T06:51:16;28.08;;;11.10;;
81137;SDS011;70623;50.886;3.892;2024-01-06T06:53:46;28.23;;;11.02;;
81137;SDS011;70623;50.886;3.892;2024-01-06T06:56:14;25.80;;;11.25;;
81137;SDS011;70623;50.886;3.892;2024-01-06T06:58:42;22.80;;;10.85;;
81137;SDS011;70623;50.886;3.892;2024-01-06T07:01:09;17.92;;;6.82;;
81137;SDS011;70623;50.886;3.892;2024-01-06T07:03:35;15.05;;;6.75;;
81137;SDS011;70623;50.886;3.892;2024-01-06T07:06:00;10.88;;;4.88;;
81137;SDS011;70623;50.886;3.892;2024-01-06T07:08:26;10.82;;;5.30;;
81137;SDS011;70623;50.886;3.892;2024-01-06T07:10:53;16.75;;;5.68;;
81137;SDS011;70623;50.886;3.892;2024-01-06T07:13:18;11.25;;;5.15;;
81137;SDS011;70623;50.886;3.892;2024-01-06T07:15:44;17.13;;;7.75;;
81137;SDS011;70623;50.886;3.892;2024-01-06T07:18:10;14.18;;;6.53;;
81137;SDS011;70623;50.886;3.892;2024-01-06T07:20:38;14.23;;;6.57;;
81137;SDS011;70623;50.886;3.892;2024-01-06T07:23:06;22.25;;;7.93;;
81137;SDS011;70623;50.886;3.892;2024-01-06T07:25:34;9.55;;;5.03;;
81137;SDS011;70623;50.886;3.892;2024-01-06T07:28:01;11.32;;;5.88;;
81137;SDS011;70623;50.886;3.892;2024-01-06T07:30:27;16.10;;;7.53;;
81137;SDS011;70623;50.886;3.892;2024-01-06T07:32:53;22.95;;;7.18;;
81137;SDS011;70623;50.886;3.892;2024-01-06T07:35:18;19.15;;;7.90;;
81137;SDS011;70623;50.886;3.892;2024-01-06T07:37:44;21.88;;;8.60;;
81137;SDS011;70623;50.886;3.892;2024-01-06T07:40:10;15.57;;;7.05;;
81137;SDS011;70623;50.886;3.892;2024-01-06T07:42:38;22.70;;;9.98;;
81137;SDS011;70623;50.886;3.892;2024-01-06T07:45:04;18.77;;;9.02;;
81137;SDS011;70623;50.886;3.892;2024-01-06T07:47:30;26.88;;;10.02;;
81137;SDS011;70623;50.886;3.892;2024-01-06T07:49:55;19.73;;;8.98;;
81137;SDS011;70623;50.886;3.892;2024-01-06T07:52:22;22.63;;;8.20;;
81137;SDS011;70623;50.886;3.892;2024-01-06T07:54:50;21.08;;;8.45;;
81137;SDS011;70623;50.886;3.892;2024-01-06T09:00:39;28.25;;;10.85;;
81137;SDS011;70623;50.886;3.892;2024-01-06T09:03:05;31.50;;;9.45;;
81137;SDS011;70623;50.886;3.892;2024-01-06T09:05:31;17.05;;;8.05;;
81137;SDS011;70623;50.886;3.892;2024-01-06T09:07:58;17.63;;;8.48;;
81137;SDS011;70623;50.886;3.892;2024-01-06T09:10:24;18.35;;;8.55;;
81137;SDS011;70623;50.886;3.892;2024-01-06T09:12:50;21.38;;;9.93;;
81137;SDS011;70623;50.886;3.892;2024-01-06T09:15:19;26.73;;;12.07;;
81137;SDS011;70623;50.886;3.892;2024-01-06T09:17:45;27.58;;;11.63;;
81137;SDS011;70623;50.886;3.892;2024-01-06T09:20:10;13.73;;;7.05;;
81137;SDS011;70623;50.886;3.892;2024-01-06T09:22:36;12.93;;;6.07;;
81137;SDS011;70623;50.886;3.892;2024-01-06T09:25:02;17.98;;;8.38;;
81137;SDS011;70623;50.886;3.892;2024-01-06T09:27:28;21.20;;;9.05;;
81137;SDS011;70623;50.886;3.892;2024-01-06T09:29:54;25.15;;;8.57;;
81137;SDS011;70623;50.886;3.892;2024-01-06T09:32:22;19.75;;;9.00;;
81137;SDS011;70623;50.886;3.892;2024-01-06T09:34:51;18.75;;;8.68;;
81137;SDS011;70623;50.886;3.892;2024-01-06T09:37:17;18.77;;;8.38;;
81137;SDS011;70623;50.886;3.892;2024-01-06T09:39:42;21.95;;;10.20;;
81137;SDS011;70623;50.886;3.892;2024-01-06T09:42:08;14.30;;;8.32;;
81137;SDS011;70623;50.886;3.892;2024-01-06T09:44:34;15.90;;;7.68;;
81137;SDS011;70623;50.886;3.892;2024-01-06T09:47:00;15.05;;;7.95;;
81137;SDS011;70623;50.886;3.892;2024-01-06T09:49:31;12.68;;;7.65;;
81137;SDS011;70623;50.886;3.892;2024-01-06T09:51:59;14.57;;;7.75;;
81137;SDS011;70623;50.886;3.892;2024-01-06T09:54:28;19.67;;;9.15;;
81137;SDS011;70623;50.886;3.892;2024-01-06T10:50:25;12.57;;;7.63;;
81137;SDS011;70623;50.886;3.892;2024-01-06T10:52:52;16.25;;;8.48;;
81137;SDS011;70623;50.886;3.892;2024-01-06T10:55:24;18.63;;;9.73;;
81137;SDS011;70623;50.886;3.892;2024-01-06T10:57:51;19.10;;;9.48;;
81137;SDS011;70623;50.886;3.892;2024-01-06T11:00:21;20.35;;;9.20;;
81137;SDS011;70623;50.886;3.892;2024-01-06T11:02:47;21.42;;;9.73;;
81137;SDS011;70623;50.886;3.892;2024-01-06T11:05:17;18.52;;;8.90;;
81137;SDS011;70623;50.886;3.892;2024-01-06T11:07:46;19.83;;;9.30;;
81137;SDS011;70623;50.886;3.892;2024-01-06T11:10:19;20.38;;;9.57;;
81137;SDS011;70623;50.886;3.892;2024-01-06T11:12:46;17.90;;;8.88;;
81137;SDS011;70623;50.886;3.892;2024-01-06T11:15:43;21.13;;;10.93;;
81137;SDS011;70623;50.886;3.892;2024-01-06T11:18:30;19.17;;;9.60;;
81137;SDS011;70623;50.886;3.892;2024-01-06T11:24:04;14.93;;;8.55;;
81137;SDS011;70623;50.886;3.892;2024-01-06T11:26:50;16.67;;;9.07;;
81137;SDS011;70623;50.886;3.892;2024-01-06T11:29:17;16.50;;;8.77;;
81137;SDS011;70623;50.886;3.892;2024-01-06T11:34:42;17.92;;;9.15;;
81137;SDS011;70623;50.886;3.892;2024-01-06T11:37:07;20.83;;;11.63;;
81137;SDS011;70623;50.886;3.892;2024-01-06T11:39:37;16.33;;;8.90;;
81137;SDS011;70623;50.886;3.892;2024-01-06T11:42:05;16.48;;;9.65;;
81137;SDS011;70623;50.886;3.892;2024-01-06T11:44:39;17.42;;;9.02;;
81137;SDS011;70623;50.886;3.892;2024-01-06T11:47:08;19.35;;;9.15;;
81137;SDS011;70623;50.886;3.892;2024-01-06T11:49:36;20.67;;;9.77;;
81137;SDS011;70623;50.886;3.892;2024-01-06T11:52:02;19.98;;;10.35;;
81137;SDS011;70623;50.886;3.892;2024-01-06T11:54:28;22.08;;;10.95;;
81137;SDS011;70623;50.886;3.892;2024-01-06T11:56:58;15.70;;;8.77;;
81137;SDS011;70623;50.886;3.892;2024-01-06T11:59:23;20.05;;;9.88;;
81137;SDS011;70623;50.886;3.892;2024-01-06T12:01:49;21.48;;;10.43;;
81137;SDS011;70623;50.886;3.892;2024-01-06T12:04:16;13.57;;;7.45;;
81137;SDS011;70623;50.886;3.892;2024-01-06T12:06:47;20.85;;;9.82;;
81137;SDS011;70623;50.886;3.892;2024-01-06T12:09:16;19.25;;;10.05;;
81137;SDS011;70623;50.886;3.892;2024-01-06T12:11:44;19.35;;;9.55;;
81137;SDS011;70623;50.886;3.892;2024-01-06T12:14:11;17.90;;;8.57;;
81137;SDS011;70623;50.886;3.892;2024-01-06T12:16:38;16.20;;;9.18;;
81137;SDS011;70623;50.886;3.892;2024-01-06T12:19:08;20.65;;;9.45;;
81137;SDS011;70623;50.886;3.892;2024-01-06T12:21:33;18.15;;;9.70;;
81137;SDS011;70623;50.886;3.892;2024-01-06T12:24:15;20.77;;;10.80;;
81137;SDS011;70623;50.886;3.892;2024-01-06T12:26:48;18.33;;;10.38;;
81137;SDS011;70623;50.886;3.892;2024-01-06T12:29:16;24.10;;;10.77;;
81137;SDS011;70623;50.886;3.892;2024-01-06T12:31:42;17.13;;;10.27;;
81137;SDS011;70623;50.886;3.892;2024-01-06T12:34:12;21.45;;;8.52;;
81137;SDS011;70623;50.886;3.892;2024-01-06T12:36:39;18.83;;;10.27;;
81137;SDS011;70623;50.886;3.892;2024-01-06T12:39:10;18.83;;;8.50;;
81137;SDS011;70623;50.886;3.892;2024-01-06T12:41:42;22.67;;;10.82;;
81137;SDS011;70623;50.886;3.892;2024-01-06T12:44:12;14.57;;;8.30;;
81137;SDS011;70623;50.886;3.892;2024-01-06T12:46:38;13.43;;;6.05;;
81137;SDS011;70623;50.886;3.892;2024-01-06T12:49:04;15.40;;;8.25;;
81137;SDS011;70623;50.886;3.892;2024-01-06T12:51:30;18.92;;;8.00;;
81137;SDS011;70623;50.886;3.892;2024-01-06T12:53:56;12.98;;;6.05;;
81137;SDS011;70623;50.886;3.892;2024-01-06T12:56:21;11.70;;;5.68;;
81137;SDS011;70623;50.886;3.892;2024-01-06T13:59:33;9.68;;;4.40;;
81137;SDS011;70623;50.886;3.892;2024-01-06T14:02:02;7.40;;;4.00;;
81137;SDS011;70623;50.886;3.892;2024-01-06T14:04:31;9.82;;;4.10;;
81137;SDS011;70623;50.886;3.892;2024-01-06T14:06:56;10.85;;;3.63;;
81137;SDS011;70623;50.886;3.892;2024-01-06T14:09:22;8.00;;;3.45;;
81137;SDS011;70623;50.886;3.892;2024-01-06T14:11:48;7.07;;;3.53;;
81137;SDS011;70623;50.886;3.892;2024-01-06T14:14:16;6.40;;;3.78;;
81137;SDS011;70623;50.886;3.892;2024-01-06T14:16:42;9.15;;;4.30;;
81137;SDS011;70623;50.886;3.892;2024-01-06T14:19:08;7.55;;;4.55;;
81137;SDS011;70623;50.886;3.892;2024-01-06T14:21:36;7.88;;;4.00;;
81137;SDS011;70623;50.886;3.892;2024-01-06T14:24:02;7.93;;;3.92;;
81137;SDS011;70623;50.886;3.892;2024-01-06T14:26:30;11.50;;;4.18;;
81137;SDS011;70623;50.886;3.892;2024-01-06T14:28:57;9.13;;;4.32;;
81137;SDS011;70623;50.886;3.892;2024-01-06T14:31:23;4.55;;;3.08;;
81137;SDS011;70623;50.886;3.892;2024-01-06T14:33:52;6.18;;;3.80;;
81137;SDS011;70623;50.886;3.892;2024-01-06T14:36:18;7.63;;;4.45;;
81137;SDS011;70623;50.886;3.892;2024-01-06T14:38:46;8.00;;;4.57;;
81137;SDS011;70623;50.886;3.892;2024-01-06T14:41:14;6.80;;;3.55;;
81137;SDS011;70623;50.886;3.892;2024-01-06T14:43:42;5.95;;;3.67;;
81137;SDS011;70623;50.886;3.892;2024-01-06T14:46:08;5.63;;;3.40;;
81137;SDS011;70623;50.886;3.892;2024-01-06T14:48:36;6.50;;;3.35;;
81137;SDS011;70623;50.886;3.892;2024-01-06T14:51:01;5.40;;;2.95;;
81137;SDS011;70623;50.886;3.892;2024-01-06T14:53:29;5.85;;;3.08;;
81137;SDS011;70623;50.886;3.892;2024-01-06T14:55:55;4.75;;;3.30;;
81137;SDS011;70623;50.886;3.892;2024-01-06T14:58:20;4.88;;;3.17;;
81137;SDS011;70623;50.886;3.892;2024-01-06T15:00:46;6.75;;;3.92;;
81137;SDS011;70623;50.886;3.892;2024-01-06T15:03:12;4.43;;;2.70;;
81137;SDS011;70623;50.886;3.892;2024-01-06T15:05:40;7.80;;;4.28;;
81137;SDS011;70623;50.886;3.892;2024-01-06T15:08:06;6.10;;;3.88;;
81137;SDS011;70623;50.886;3.892;2024-01-06T15:10:31;11.32;;;4.63;;
81137;SDS011;70623;50.886;3.892;2024-01-06T15:12:57;4.95;;;3.17;;
81137;SDS011;70623;50.886;3.892;2024-01-06T15:15:23;5.88;;;3.75;;
81137;SDS011;70623;50.886;3.892;2024-01-06T15:17:51;6.18;;;3.60;;
81137;SDS011;70623;50.886;3.892;2024-01-06T15:20:17;6.90;;;4.10;;
81137;SDS011;70623;50.886;3.892;2024-01-06T15:22:43;6.35;;;3.88;;
81137;SDS011;70623;50.886;3.892;2024-01-06T15:25:10;5.35;;;3.55;;
81137;SDS011;70623;50.886;3.892;2024-01-06T15:27:36;6.28;;;3.92;;
81137;SDS011;70623;50.886;3.892;2024-01-06T15:30:03;10.45;;;4.68;;
81137;SDS011;70623;50.886;3.892;2024-01-06T15:32:33;4.70;;;2.70;;
81137;SDS011;70623;50.886;3.892;2024-01-06T15:35:02;7.55;;;4.28;;
81137;SDS011;70623;50.886;3.892;2024-01-06T15:37:31;5.97;;;3.10;;
81137;SDS011;70623;50.886;3.892;2024-01-06T15:39:57;8.07;;;3.60;;
81137;SDS011;70623;50.886;3.892;2024-01-06T15:42:23;6.40;;;3.65;;
81137;SDS011;70623;50.886;3.892;2024-01-06T15:44:51;7.93;;;3.90;;
81137;SDS011;70623;50.886;3.892;2024-01-06T15:47:16;7.20;;;3.28;;
81137;SDS011;70623;50.886;3.892;2024-01-06T15:49:42;9.57;;;3.72;;
81137;SDS011;70623;50.886;3.892;2024-01-06T15:52:08;5.35;;;3.08;;
81137;SDS011;70623;50.886;3.892;2024-01-06T15:54:34;7.43;;;3.90;;
81137;SDS011;70623;50.886;3.892;2024-01-06T15:56:59;6.75;;;3.90;;
81137;SDS011;70623;50.886;3.892;2024-01-06T15:59:25;6.55;;;3.83;;
81137;SDS011;70623;50.886;3.892;2024-01-06T16:01:52;9.40;;;4.28;;
81137;SDS011;70623;50.886;3.892;2024-01-06T16:04:17;5.05;;;3.03;;
81137;SDS011;70623;50.886;3.892;2024-01-06T16:06:47;6.72;;;3.58;;
81137;SDS011;70623;50.886;3.892;2024-01-06T16:09:16;6.25;;;3.25;;
81137;SDS011;70623;50.886;3.892;2024-01-06T16:11:41;5.22;;;3.05;;
81137;SDS011;70623;50.886;3.892;2024-01-06T16:14:07;6.18;;;3.10;;
81137;SDS011;70623;50.886;3.892;2024-01-06T16:16:35;7.63;;;3.65;;
81137;SDS011;70623;50.886;3.892;2024-01-06T16:19:01;7.20;;;3.65;;
81137;SDS011;70623;50.886;3.892;2024-01-06T16:21:27;5.93;;;3.20;;
81137;SDS011;70623;50.886;3.892;2024-01-06T16:23:53;7.13;;;4.00;;
81137;SDS011;70623;50.886;3.892;2024-01-06T16:26:19;6.20;;;3.22;;
81137;SDS011;70623;50.886;3.892;2024-01-06T16:28:45;14.57;;;4.20;;
81137;SDS011;70623;50.886;3.892;2024-01-06T16:31:13;5.35;;;3.80;;
81137;SDS011;70623;50.886;3.892;2024-01-06T16:33:39;6.15;;;3.25;;
81137;SDS011;70623;50.886;3.892;2024-01-06T16:36:05;5.22;;;3.35;;
81137;SDS011;70623;50.886;3.892;2024-01-06T16:38:33;5.10;;;2.92;;
81137;SDS011;70623;50.886;3.892;2024-01-06T16:41:03;8.20;;;4.80;;
81137;SDS011;70623;50.886;3.892;2024-01-06T16:43:29;7.80;;;3.75;;
81137;SDS011;70623;50.886;3.892;2024-01-06T16:45:57;5.85;;;3.80;;
81137;SDS011;70623;50.886;3.892;2024-01-06T16:48:23;7.35;;;4.40;;
81137;SDS011;70623;50.886;3.892;2024-01-06T16:50:53;5.05;;;3.15;;
81137;SDS011;70623;50.886;3.892;2024-01-06T16:53:21;10.63;;;3.88;;
81137;SDS011;70623;50.886;3.892;2024-01-06T16:55:47;12.75;;;4.03;;
81137;SDS011;70623;50.886;3.892;2024-01-06T16:58:15;7.93;;;4.22;;
81137;SDS011;70623;50.886;3.892;2024-01-06T17:00:41;7.00;;;4.45;;
81137;SDS011;70623;50.886;3.892;2024-01-06T17:03:09;7.55;;;4.35;;
81137;SDS011;70623;50.886;3.892;2024-01-06T17:05:37;9.70;;;4.53;;
81137;SDS011;70623;50.886;3.892;2024-01-06T17:08:03;10.98;;;4.72;;
81137;SDS011;70623;50.886;3.892;2024-01-06T17:10:29;10.80;;;5.13;;
81137;SDS011;70623;50.886;3.892;2024-01-06T17:13:00;8.75;;;5.00;;
81137;SDS011;70623;50.886;3.892;2024-01-06T17:15:26;10.50;;;5.03;;
81137;SDS011;70623;50.886;3.892;2024-01-06T17:17:53;8.55;;;4.30;;
81137;SDS011;70623;50.886;3.892;2024-01-06T17:20:19;9.55;;;4.13;;
81137;SDS011;70623;50.886;3.892;2024-01-06T17:22:45;5.40;;;3.88;;
81137;SDS011;70623;50.886;3.892;2024-01-06T17:25:12;7.05;;;3.65;;
81137;SDS011;70623;50.886;3.892;2024-01-06T17:27:41;6.72;;;3.72;;
